createdAt,value
2019-02-02T00:00:57.622Z,7.80
2019-02-02T00:03:26.560Z,7.40
2019-02-02T00:05:55.663Z,7.50
2019-02-02T00:08:24.880Z,7.60
2019-02-02T00:10:55.084Z,7.50
2019-02-02T00:13:24.286Z,7.60
2019-02-02T00:15:53.639Z,7.60
2019-02-02T00:18:22.753Z,7.60
2019-02-02T00:20:51.986Z,7.60
2019-02-02T00:23:21.267Z,7.50
2019-02-02T00:25:50.653Z,7.50
2019-02-02T00:28:19.747Z,7.40
2019-02-02T00:30:48.630Z,7.50
2019-02-02T00:33:18.177Z,7.40
2019-02-02T00:35:47.387Z,7.30
2019-02-02T00:38:16.461Z,7.20
2019-02-02T00:40:45.632Z,7.30
2019-02-02T00:43:14.302Z,7.30
2019-02-02T00:45:43.072Z,7.20
2019-02-02T00:48:11.821Z,7.20
2019-02-02T00:50:40.623Z,7.20
2019-02-02T00:53:09.799Z,7.20
2019-02-02T00:55:39.083Z,7.20
2019-02-02T00:58:08.425Z,7.20
2019-02-02T01:00:37.783Z,7.20
2019-02-02T01:03:07.004Z,7.20
2019-02-02T01:05:36.285Z,7.40
2019-02-02T01:08:05.661Z,7.20
2019-02-02T01:10:38.875Z,7.20
2019-02-02T01:13:09.034Z,7.20
2019-02-02T01:15:38.270Z,7.20
2019-02-02T01:18:08.208Z,7.10
2019-02-02T01:20:37.500Z,7.20
2019-02-02T01:23:07.014Z,7.10
2019-02-02T01:25:35.983Z,7.10
2019-02-02T01:28:05.758Z,7.20
2019-02-02T01:30:36.093Z,7.10
2019-02-02T01:33:08.192Z,6.90
2019-02-02T01:35:39.014Z,7.20
2019-02-02T01:38:14.807Z,7.20
2019-02-02T01:40:43.843Z,7.00
2019-02-02T01:43:13.504Z,7.00
2019-02-02T01:45:42.560Z,6.90
2019-02-02T01:48:11.807Z,7.10
2019-02-02T01:50:41.103Z,7.00
2019-02-02T01:53:11.148Z,6.90
2019-02-02T01:55:41.408Z,7.20
2019-02-02T01:58:16.903Z,7.00
2019-02-02T02:00:48.926Z,7.00
2019-02-02T02:03:19.649Z,7.00
2019-02-02T02:05:50.287Z,7.00
2019-02-02T02:08:21.695Z,6.90
2019-02-02T02:10:53.907Z,6.90
2019-02-02T02:13:23.278Z,6.90
2019-02-02T02:15:53.901Z,6.90
2019-02-02T02:18:24.712Z,6.90
2019-02-02T02:20:55.161Z,6.80
2019-02-02T02:23:25.539Z,6.80
2019-02-02T02:25:57.175Z,6.90
2019-02-02T02:28:28.524Z,6.80
2019-02-02T02:31:01.575Z,6.90
2019-02-02T02:33:30.677Z,6.80
2019-02-02T02:36:01.016Z,6.80
2019-02-02T02:38:31.939Z,6.80
2019-02-02T02:41:04.101Z,6.90
2019-02-02T02:43:33.299Z,6.90
2019-02-02T02:46:02.817Z,6.80
2019-02-02T02:48:32.139Z,6.80
2019-02-02T02:51:11.379Z,6.80
2019-02-02T02:53:40.690Z,6.90
2019-02-02T02:56:11.939Z,6.80
2019-02-02T02:58:41.889Z,6.80
2019-02-02T03:01:10.723Z,7.00
2019-02-02T03:03:39.515Z,6.90
2019-02-02T03:06:09.383Z,6.90
2019-02-02T03:08:40.951Z,6.80
2019-02-02T03:11:11.069Z,6.90
2019-02-02T03:13:41.857Z,6.90
2019-02-02T03:16:13.259Z,6.90
2019-02-02T03:18:45.332Z,6.80
2019-02-02T03:21:15.377Z,6.80
2019-02-02T03:23:44.877Z,6.90
2019-02-02T03:26:16.657Z,6.90
2019-02-02T03:28:53.491Z,6.80
2019-02-02T03:31:23.737Z,6.90
2019-02-02T03:33:54.288Z,6.90
2019-02-02T03:36:28.631Z,7.00
2019-02-02T03:38:57.483Z,6.90
2019-02-02T03:41:26.150Z,7.00
2019-02-02T03:43:54.752Z,7.00
2019-02-02T03:46:23.311Z,6.90
2019-02-02T03:48:52.786Z,6.90
2019-02-02T03:51:23.030Z,6.80
2019-02-02T03:53:52.369Z,7.00
2019-02-02T03:56:21.805Z,6.90
2019-02-02T03:58:51.117Z,6.50
2019-02-02T04:01:20.104Z,6.80
2019-02-02T04:03:49.600Z,6.70
2019-02-02T04:06:18.850Z,6.70
2019-02-02T04:08:47.883Z,6.60
2019-02-02T04:11:17.255Z,6.50
2019-02-02T04:13:45.912Z,6.80
2019-02-02T04:16:14.520Z,6.80
2019-02-02T04:18:43.959Z,6.60
2019-02-02T04:21:13.211Z,6.60
2019-02-02T04:23:43.717Z,6.60
2019-02-02T04:26:14.272Z,6.50
2019-02-02T04:28:43.325Z,6.70
2019-02-02T04:31:12.433Z,6.60
2019-02-02T04:33:42.635Z,6.60
2019-02-02T04:36:11.963Z,6.50
2019-02-02T04:38:41.027Z,6.50
2019-02-02T04:41:10.244Z,6.60
2019-02-02T04:43:39.335Z,6.60
2019-02-02T04:46:08.909Z,6.50
2019-02-02T04:48:38.310Z,6.60
2019-02-02T04:51:07.597Z,6.30
2019-02-02T04:53:36.603Z,6.20
2019-02-02T04:56:06.194Z,6.20
2019-02-02T04:58:35.350Z,6.20
2019-02-02T05:01:04.509Z,6.20
2019-02-02T05:03:33.837Z,6.20
2019-02-02T05:06:03.069Z,6.10
2019-02-02T05:08:32.500Z,6.30
2019-02-02T05:11:01.428Z,6.10
2019-02-02T05:13:30.729Z,6.30
2019-02-02T05:16:00.182Z,6.20
2019-02-02T05:18:29.688Z,6.20
2019-02-02T05:20:58.998Z,6.30
2019-02-02T05:23:28.367Z,6.30
2019-02-02T05:25:58.545Z,6.20
2019-02-02T05:28:27.826Z,6.30
2019-02-02T05:30:57.606Z,5.90
2019-02-02T05:33:26.972Z,6.30
2019-02-02T05:35:57.087Z,6.30
2019-02-02T05:38:27.072Z,5.80
2019-02-02T05:40:57.069Z,6.20
2019-02-02T05:43:26.349Z,6.10
2019-02-02T05:45:55.397Z,6.10
2019-02-02T05:48:25.594Z,6.30
2019-02-02T05:50:54.362Z,6.30
2019-02-02T05:53:23.834Z,6.50
2019-02-02T05:55:53.343Z,6.30
2019-02-02T05:58:22.463Z,6.30
2019-02-02T06:00:52.551Z,6.60
2019-02-02T06:03:21.867Z,6.50
2019-02-02T06:05:50.991Z,6.50
2019-02-02T06:08:20.237Z,6.60
2019-02-02T06:10:49.551Z,6.60
2019-02-02T06:13:18.911Z,6.80
2019-02-02T06:15:47.992Z,6.90
2019-02-02T06:18:16.913Z,6.80
2019-02-02T06:20:46.335Z,6.80
2019-02-02T06:23:15.628Z,6.60
2019-02-02T06:25:45.025Z,6.60
2019-02-02T06:28:14.426Z,6.40
2019-02-02T06:30:44.648Z,6.80
2019-02-02T06:33:14.999Z,6.60
2019-02-02T06:35:46.377Z,6.40
2019-02-02T06:38:15.523Z,6.80
2019-02-02T06:40:44.190Z,6.80
2019-02-02T06:43:13.335Z,6.90
2019-02-02T06:45:42.601Z,6.90
2019-02-02T06:48:12.024Z,6.80
2019-02-02T06:50:41.458Z,6.80
2019-02-02T06:53:10.871Z,6.80
2019-02-02T06:55:40.952Z,6.90
2019-02-02T06:58:10.107Z,6.90
2019-02-02T07:00:39.479Z,6.80
2019-02-02T07:03:08.723Z,6.90
2019-02-02T07:05:37.880Z,6.90
2019-02-02T07:08:07.149Z,6.90
2019-02-02T07:10:36.628Z,6.90
2019-02-02T07:13:05.783Z,6.80
2019-02-02T07:15:34.849Z,6.80
2019-02-02T07:18:03.901Z,6.80
2019-02-02T07:20:32.542Z,6.90
2019-02-02T07:23:01.208Z,6.90
2019-02-02T07:25:29.872Z,6.80
2019-02-02T07:27:58.497Z,6.70
2019-02-02T07:30:28.992Z,7.00
2019-02-02T07:32:58.263Z,6.80
2019-02-02T07:35:27.628Z,6.60
2019-02-02T07:37:57.042Z,6.60
2019-02-02T07:40:26.348Z,6.60
2019-02-02T07:42:55.859Z,6.40
2019-02-02T07:45:32.035Z,6.60
2019-02-02T07:48:02.174Z,6.10
2019-02-02T07:50:31.207Z,6.20
2019-02-02T07:53:00.450Z,6.30
2019-02-02T07:55:29.726Z,6.30
2019-02-02T07:57:59.227Z,6.30
2019-02-02T08:00:40.726Z,6.30
2019-02-02T08:03:03.567Z,6.20
2019-02-02T08:05:32.925Z,6.20
2019-02-02T08:08:01.623Z,6.20
2019-02-02T08:10:30.737Z,6.30
2019-02-02T08:12:59.507Z,6.20
2019-02-02T08:15:33.870Z,6.30
2019-02-02T08:18:03.553Z,6.30
2019-02-02T08:20:32.859Z,6.10
2019-02-02T08:23:01.952Z,6.30
2019-02-02T08:25:31.041Z,6.20
2019-02-02T08:28:00.233Z,6.30
2019-02-02T08:30:31.158Z,6.30
2019-02-02T08:33:00.484Z,6.30
2019-02-02T08:35:29.667Z,6.50
2019-02-02T08:37:59.807Z,6.30
2019-02-02T08:40:28.999Z,6.30
2019-02-02T08:42:58.162Z,6.20
2019-02-02T08:45:28.861Z,6.10
2019-02-02T08:47:58.322Z,6.20
2019-02-02T08:50:32.579Z,6.10
2019-02-02T08:53:01.313Z,6.10
2019-02-02T08:55:30.189Z,6.30
2019-02-02T08:57:58.910Z,6.20
2019-02-02T09:00:28.301Z,6.30
2019-02-02T09:02:57.687Z,6.20
2019-02-02T09:05:26.925Z,6.00
2019-02-02T09:07:56.402Z,6.30
2019-02-02T09:10:27.439Z,6.20
2019-02-02T09:12:57.093Z,6.20
2019-02-02T09:15:26.568Z,6.00
2019-02-02T09:17:56.084Z,6.20
2019-02-02T09:20:26.325Z,6.30
2019-02-02T09:23:05.939Z,6.20
2019-02-02T09:25:27.868Z,6.30
2019-02-02T09:27:57.387Z,6.10
2019-02-02T09:30:29.633Z,6.20
2019-02-02T09:32:58.494Z,6.00
2019-02-02T09:35:27.344Z,5.90
2019-02-02T09:37:56.489Z,6.00
2019-02-02T09:40:25.828Z,5.90
2019-02-02T09:42:54.807Z,5.70
2019-02-02T09:45:24.818Z,5.70
2019-02-02T09:47:55.614Z,5.80
2019-02-02T09:50:26.648Z,6.10
2019-02-02T09:52:56.193Z,5.80
2019-02-02T09:55:27.135Z,6.00
2019-02-02T09:57:58.885Z,5.90
2019-02-02T10:00:30.697Z,6.00
2019-02-02T10:02:59.880Z,5.90
2019-02-02T10:05:29.678Z,5.80
2019-02-02T10:07:58.877Z,5.90
2019-02-02T10:10:29.549Z,5.90
2019-02-02T10:12:58.987Z,5.90
2019-02-02T10:15:28.300Z,5.80
2019-02-02T10:17:57.149Z,6.00
2019-02-02T10:20:27.937Z,6.00
2019-02-02T10:22:58.029Z,5.80
2019-02-02T10:25:28.465Z,5.90
2019-02-02T10:27:57.555Z,5.90
2019-02-02T10:30:34.506Z,5.70
2019-02-02T10:33:03.842Z,5.90
2019-02-02T10:35:33.273Z,5.70
2019-02-02T10:38:02.642Z,5.70
2019-02-02T10:40:31.983Z,5.90
2019-02-02T10:43:01.674Z,5.40
2019-02-02T10:45:30.847Z,5.50
2019-02-02T10:48:00.210Z,5.40
2019-02-02T10:50:29.458Z,5.40
2019-02-02T10:52:58.894Z,5.40
2019-02-02T10:55:28.177Z,5.30
2019-02-02T10:57:57.876Z,5.10
2019-02-02T11:00:28.794Z,5.20
2019-02-02T11:02:58.686Z,5.20
2019-02-02T11:05:27.526Z,5.30
2019-02-02T11:07:56.504Z,5.10
2019-02-02T11:10:29.922Z,5.40
2019-02-02T11:12:59.357Z,5.40
2019-02-02T11:15:28.766Z,5.30
2019-02-02T11:17:58.373Z,5.30
2019-02-02T11:20:29.562Z,5.00
2019-02-02T11:22:58.661Z,5.40
2019-02-02T11:25:27.926Z,5.60
2019-02-02T11:27:57.287Z,5.30
2019-02-02T11:30:26.701Z,5.60
2019-02-02T11:32:55.752Z,5.60
2019-02-02T11:35:24.809Z,5.40
2019-02-02T11:37:53.659Z,5.60
2019-02-02T11:40:25.814Z,5.40
2019-02-02T11:42:55.464Z,5.60
2019-02-02T11:45:26.504Z,5.90
2019-02-02T11:47:56.258Z,5.90
2019-02-02T11:50:25.695Z,5.50
2019-02-02T11:52:54.944Z,5.80
2019-02-02T11:55:25.906Z,5.90
2019-02-02T11:57:54.832Z,5.90
2019-02-02T12:00:29.648Z,5.70
2019-02-02T12:02:59.087Z,5.80
2019-02-02T12:05:28.393Z,6.00
2019-02-02T12:07:57.574Z,5.80
2019-02-02T12:10:34.001Z,5.70
2019-02-02T12:13:03.537Z,5.80
2019-02-02T12:15:32.548Z,5.90
2019-02-02T12:18:01.721Z,6.20
2019-02-02T12:20:33.157Z,6.20
2019-02-02T12:23:01.730Z,6.00
2019-02-02T12:25:30.828Z,6.20
2019-02-02T12:28:00.067Z,6.20
2019-02-02T12:30:31.412Z,6.20
2019-02-02T12:33:03.041Z,6.00
2019-02-02T12:35:30.594Z,6.00
2019-02-02T12:38:00.525Z,6.00
2019-02-02T12:40:29.679Z,6.30
2019-02-02T12:42:59.154Z,6.20
2019-02-02T12:45:33.937Z,6.00
2019-02-02T12:48:03.143Z,6.20
2019-02-02T12:50:32.404Z,6.30
2019-02-02T12:53:01.738Z,6.20
2019-02-02T12:55:30.819Z,5.90
2019-02-02T12:58:00.043Z,6.20
2019-02-02T13:00:29.204Z,5.80
2019-02-02T13:02:58.236Z,5.80
2019-02-02T13:05:27.378Z,5.90
2019-02-02T13:07:56.593Z,5.80
2019-02-02T13:10:29.794Z,5.90
2019-02-02T13:12:58.982Z,5.80
2019-02-02T13:15:28.261Z,5.80
2019-02-02T13:17:57.645Z,5.90
2019-02-02T13:20:26.411Z,5.90
2019-02-02T13:22:55.011Z,5.50
2019-02-02T13:25:24.793Z,5.70
2019-02-02T13:27:53.963Z,5.40
2019-02-02T13:30:34.605Z,5.20
2019-02-02T13:33:03.736Z,5.20
2019-02-02T13:35:34.853Z,5.20
2019-02-02T13:38:04.412Z,5.20
2019-02-02T13:40:33.664Z,5.30
2019-02-02T13:43:02.888Z,5.40
2019-02-02T13:45:32.326Z,5.60
2019-02-02T13:48:01.653Z,5.50
2019-02-02T13:50:31.350Z,5.60
2019-02-02T13:53:00.493Z,5.50
2019-02-02T13:55:29.754Z,5.60
2019-02-02T13:57:59.024Z,5.70
2019-02-02T14:00:32.952Z,5.60
2019-02-02T14:03:03.544Z,5.60
2019-02-02T14:05:32.428Z,5.60
2019-02-02T14:08:00.999Z,5.90
2019-02-02T14:10:31.884Z,5.90
2019-02-02T14:13:01.227Z,5.80
2019-02-02T14:15:30.658Z,5.80
2019-02-02T14:18:00.138Z,5.80
2019-02-02T14:20:30.532Z,5.90
2019-02-02T14:22:59.764Z,5.60
2019-02-02T14:25:29.452Z,5.80
2019-02-02T14:27:58.443Z,5.90
2019-02-02T14:30:28.225Z,5.90
2019-02-02T14:32:57.367Z,6.00
2019-02-02T14:35:27.657Z,5.90
2019-02-02T14:37:57.204Z,5.90
2019-02-02T14:40:26.722Z,5.90
2019-02-02T14:42:56.563Z,5.80
2019-02-02T14:45:27.648Z,6.00
2019-02-02T14:47:57.078Z,6.00
2019-02-02T14:50:27.120Z,5.90
2019-02-02T14:52:57.297Z,6.00
2019-02-02T14:55:28.812Z,5.90
2019-02-02T14:57:57.926Z,6.20
2019-02-02T15:00:29.293Z,5.90
2019-02-02T15:02:58.294Z,6.20
2019-02-02T15:05:28.675Z,6.20
2019-02-02T15:07:57.837Z,5.90
2019-02-02T15:10:27.082Z,6.00
2019-02-02T15:12:56.184Z,6.00
2019-02-02T15:15:25.484Z,6.00
2019-02-02T15:17:54.448Z,6.00
2019-02-02T15:20:32.213Z,5.90
2019-02-02T15:23:01.361Z,5.80
2019-02-02T15:25:30.325Z,6.00
2019-02-02T15:27:59.564Z,5.60
2019-02-02T15:30:34.262Z,5.90
2019-02-02T15:33:03.580Z,5.90
2019-02-02T15:35:32.976Z,5.90
2019-02-02T15:38:02.389Z,5.80
2019-02-02T15:40:31.853Z,5.90
2019-02-02T15:43:01.141Z,5.90
2019-02-02T15:45:31.640Z,5.80
2019-02-02T15:48:00.933Z,5.80
2019-02-02T15:50:30.287Z,5.90
2019-02-02T15:52:59.522Z,5.70
2019-02-02T15:55:29.364Z,5.90
2019-02-02T15:57:58.540Z,5.70
2019-02-02T16:00:32.852Z,5.90
2019-02-02T16:03:02.063Z,5.80
2019-02-02T16:05:31.341Z,5.90
2019-02-02T16:08:04.098Z,5.90
2019-02-02T16:10:34.201Z,6.00
2019-02-02T16:13:02.952Z,5.90
2019-02-02T16:15:34.752Z,5.90
2019-02-02T16:18:03.642Z,5.90
2019-02-02T16:20:42.079Z,6.00
2019-02-02T16:23:11.880Z,6.00
2019-02-02T16:25:41.208Z,6.10
2019-02-02T16:28:10.846Z,6.20
2019-02-02T16:30:40.101Z,6.20
2019-02-02T16:33:09.772Z,6.20
2019-02-02T16:35:38.933Z,6.30
2019-02-02T16:38:08.312Z,6.20
2019-02-02T16:40:37.391Z,6.20
2019-02-02T16:43:07.398Z,6.20
2019-02-02T16:45:37.125Z,6.20
2019-02-02T16:48:06.895Z,6.20
2019-02-02T16:50:36.271Z,6.10
2019-02-02T16:53:05.307Z,6.30
2019-02-02T16:55:34.620Z,6.50
2019-02-02T16:58:04.390Z,6.60
2019-02-02T17:00:34.039Z,6.90
2019-02-02T17:03:02.694Z,6.90
2019-02-02T17:05:32.184Z,7.20
2019-02-02T17:08:01.540Z,7.30
2019-02-02T17:10:35.302Z,7.20
2019-02-02T17:13:05.725Z,7.30
2019-02-02T17:15:34.915Z,7.30
2019-02-02T17:18:05.414Z,7.40
2019-02-02T17:20:41.713Z,7.20
2019-02-02T17:23:10.901Z,7.30
2019-02-02T17:25:40.120Z,7.20
2019-02-02T17:28:10.348Z,7.50
2019-02-02T17:30:39.719Z,7.50
2019-02-02T17:33:10.810Z,7.70
2019-02-02T17:35:40.172Z,7.60
2019-02-02T17:38:09.297Z,7.50
2019-02-02T17:40:37.927Z,7.60
2019-02-02T17:43:06.476Z,7.50
2019-02-02T17:45:35.260Z,7.60
2019-02-02T17:48:04.337Z,7.50
2019-02-02T17:50:33.002Z,7.60
2019-02-02T17:53:02.479Z,7.60
2019-02-02T17:55:31.517Z,7.60
2019-02-02T17:58:01.007Z,7.80
2019-02-02T18:00:41.299Z,8.00
2019-02-02T18:03:10.601Z,8.00
2019-02-02T18:05:39.892Z,7.90
2019-02-02T18:08:09.130Z,8.20
2019-02-02T18:10:38.161Z,8.40
2019-02-02T18:13:07.466Z,8.40
2019-02-02T18:15:36.940Z,8.20
2019-02-02T18:18:06.294Z,8.30
2019-02-02T18:20:35.500Z,8.50
2019-02-02T18:23:04.862Z,8.90
2019-02-02T18:25:33.535Z,8.60
2019-02-02T18:28:02.342Z,8.70
2019-02-02T18:30:31.135Z,8.60
2019-02-02T18:33:01.056Z,8.70
2019-02-02T18:35:30.141Z,8.60
2019-02-02T18:37:59.694Z,8.70
2019-02-02T18:40:28.748Z,8.60
2019-02-02T18:42:58.158Z,9.00
2019-02-02T18:45:30.815Z,8.80
2019-02-02T18:47:59.761Z,8.90
2019-02-02T18:50:28.928Z,9.00
2019-02-02T18:52:59.560Z,9.00
2019-02-02T18:55:35.565Z,9.10
2019-02-02T18:58:05.119Z,9.10
2019-02-02T19:00:34.220Z,9.20
2019-02-02T19:03:03.689Z,9.40
2019-02-02T19:05:33.154Z,9.40
2019-02-02T19:08:02.499Z,9.30
2019-02-02T19:10:33.731Z,9.50
2019-02-02T19:13:02.484Z,9.60
2019-02-02T19:15:31.810Z,9.50
2019-02-02T19:18:03.162Z,9.60
2019-02-02T19:20:31.384Z,9.60
2019-02-02T19:23:00.544Z,9.50
2019-02-02T19:25:29.625Z,9.60
2019-02-02T19:27:59.160Z,9.70
2019-02-02T19:30:34.479Z,9.70
2019-02-02T19:33:04.222Z,9.70
2019-02-02T19:35:33.349Z,9.80
2019-02-02T19:38:02.686Z,10.00
2019-02-02T19:40:32.116Z,10.10
2019-02-02T19:43:01.274Z,10.10
2019-02-02T19:45:30.653Z,10.30
2019-02-02T19:48:00.153Z,10.40
2019-02-02T19:50:29.831Z,10.50
2019-02-02T19:52:59.138Z,10.60
2019-02-02T19:55:28.518Z,10.60
2019-02-02T19:57:57.944Z,10.50
2019-02-02T20:00:31.564Z,10.50
2019-02-02T20:03:00.296Z,10.50
2019-02-02T20:05:29.543Z,10.50
2019-02-02T20:07:58.761Z,10.50
2019-02-02T20:10:27.840Z,10.60
2019-02-02T20:12:58.120Z,10.60
2019-02-02T20:15:27.976Z,10.60
2019-02-02T20:18:08.915Z,10.60
2019-02-02T20:20:28.819Z,10.90
2019-02-02T20:22:58.257Z,10.50
2019-02-02T20:25:27.634Z,10.50
2019-02-02T20:27:56.847Z,10.50
2019-02-02T20:30:30.838Z,10.50
2019-02-02T20:32:59.960Z,10.50
2019-02-02T20:35:40.228Z,10.50
2019-02-02T20:37:59.996Z,10.60
2019-02-02T20:40:28.749Z,10.50
2019-02-02T20:42:57.361Z,10.60
2019-02-02T20:45:37.235Z,10.70
2019-02-02T20:48:05.965Z,10.70
2019-02-02T20:50:35.304Z,10.60
2019-02-02T20:53:05.079Z,10.60
2019-02-02T20:55:36.588Z,10.70
2019-02-02T20:58:07.577Z,10.70
2019-02-02T21:00:36.682Z,10.80
2019-02-02T21:03:06.040Z,10.80
2019-02-02T21:05:35.419Z,10.90
2019-02-02T21:08:05.805Z,10.90
2019-02-02T21:10:34.775Z,10.90
2019-02-02T21:13:03.958Z,11.00
2019-02-02T21:15:33.198Z,10.90
2019-02-02T21:18:02.633Z,10.80
2019-02-02T21:20:32.025Z,10.80
2019-02-02T21:23:01.101Z,10.80
2019-02-02T21:25:29.719Z,10.80
2019-02-02T21:27:58.754Z,10.80
2019-02-02T21:30:32.147Z,10.80
2019-02-02T21:33:01.341Z,10.80
2019-02-02T21:35:30.595Z,10.90
2019-02-02T21:37:59.840Z,10.90
2019-02-02T21:40:34.430Z,10.90
2019-02-02T21:43:03.772Z,11.00
2019-02-02T21:45:33.194Z,11.10
2019-02-02T21:48:02.300Z,11.20
2019-02-02T21:50:31.759Z,11.30
2019-02-02T21:53:01.641Z,11.30
2019-02-02T21:55:31.221Z,11.30
2019-02-02T21:58:00.504Z,11.30
2019-02-02T22:00:32.206Z,11.20
2019-02-02T22:03:01.521Z,11.10
2019-02-02T22:05:30.971Z,11.10
2019-02-02T22:07:59.850Z,11.10
2019-02-02T22:10:28.791Z,11.10
2019-02-02T22:12:58.872Z,11.10
2019-02-02T22:15:29.112Z,11.20
2019-02-02T22:17:58.778Z,11.20
2019-02-02T22:20:27.988Z,11.20
2019-02-02T22:22:57.134Z,11.30
2019-02-02T22:25:28.302Z,11.30
2019-02-02T22:27:57.724Z,11.20
2019-02-02T22:30:32.590Z,11.20
2019-02-02T22:33:01.808Z,11.10
2019-02-02T22:35:31.136Z,11.10
2019-02-02T22:38:01.522Z,11.00
2019-02-02T22:40:30.687Z,11.10
2019-02-02T22:43:00.254Z,11.00
2019-02-02T22:45:29.829Z,11.00
2019-02-02T22:47:58.870Z,11.00
2019-02-02T22:50:28.890Z,11.00
2019-02-02T22:52:57.791Z,11.00
2019-02-02T22:55:27.310Z,10.80
2019-02-02T22:57:56.044Z,10.80
2019-02-02T23:00:44.027Z,10.50
2019-02-02T23:03:15.999Z,10.70
2019-02-02T23:05:57.834Z,10.50
2019-02-02T23:08:44.613Z,10.50
2019-02-02T23:11:21.510Z,10.40
2019-02-02T23:14:05.013Z,10.40
2019-02-02T23:16:34.101Z,10.40
2019-02-02T23:19:04.168Z,10.40
2019-02-02T23:21:33.671Z,10.30
2019-02-02T23:24:03.355Z,10.20
2019-02-02T23:26:32.480Z,10.20
2019-02-02T23:29:01.572Z,10.10
2019-02-02T23:31:30.681Z,10.00
2019-02-02T23:34:00.294Z,10.10
2019-02-02T23:36:29.039Z,10.10
2019-02-02T23:38:57.723Z,10.00
2019-02-02T23:41:26.494Z,10.00
2019-02-02T23:43:55.516Z,9.90
2019-02-02T23:46:25.138Z,10.00
2019-02-02T23:48:54.362Z,9.70
2019-02-02T23:51:23.082Z,9.80
2019-02-02T23:53:52.307Z,9.60
2019-02-02T23:56:21.176Z,9.60
2019-02-02T23:58:49.806Z,9.60
